sensor_id;sensor_type;location;lat;lon;timestamp;temperature;humidity
30851;DHT22;17567;48.382;9.102;2023-04-24T00:12:27;10.60;99.90
30851;DHT22;17567;48.382;9.102;2023-04-24T00:17:28;10.60;99.90
30851;DHT22;17567;48.382;9.102;2023-04-24T00:22:29;10.40;99.90
30851;DHT22;17567;48.382;9.102;2023-04-24T00:27:30;10.40;99.90
30851;DHT22;17567;48.382;9.102;2023-04-24T00:32:30;10.30;99.90
30851;DHT22;17567;48.382;9.102;2023-04-24T00:37:31;10.30;99.90
30851;DHT22;17567;48.382;9.102;2023-04-24T00:42:32;10.20;99.90
30851;DHT22;17567;48.382;9.102;2023-04-24T00:47:33;10.20;99.90
30851;DHT22;17567;48.382;9.102;2023-04-24T00:52:34;10.30;99.90
30851;DHT22;17567;48.382;9.102;2023-04-24T00:57:35;10.20;99.90
30851;DHT22;17567;48.382;9.102;2023-04-24T01:02:39;10.10;99.90
30851;DHT22;17567;48.382;9.102;2023-04-24T01:07:45;10.10;99.90
30851;DHT22;17567;48.382;9.102;2023-04-24T01:12:46;10.10;99.90
30851;DHT22;17567;48.382;9.102;2023-04-24T01:17:46;10.00;99.90
30851;DHT22;17567;48.382;9.102;2023-04-24T01:22:47;9.80;99.90
30851;DHT22;17567;48.382;9.102;2023-04-24T01:27:48;9.70;99.90
30851;DHT22;17567;48.382;9.102;2023-04-24T01:32:48;9.60;99.90
30851;DHT22;17567;48.382;9.102;2023-04-24T01:37:49;9.60;99.90
30851;DHT22;17567;48.382;9.102;2023-04-24T01:42:50;9.40;99.90
30851;DHT22;17567;48.382;9.102;2023-04-24T01:47:51;9.40;99.90
30851;DHT22;17567;48.382;9.102;2023-04-24T01:52:52;9.40;99.90
30851;DHT22;17567;48.382;9.102;2023-04-24T01:57:55;9.50;99.90
30851;DHT22;17567;48.382;9.102;2023-04-24T02:02:56;9.50;99.90
30851;DHT22;17567;48.382;9.102;2023-04-24T02:07:56;9.50;99.90
30851;DHT22;17567;48.382;9.102;2023-04-24T02:12:57;9.50;99.90
30851;DHT22;17567;48.382;9.102;2023-04-24T02:17:59;9.50;99.90
30851;DHT22;17567;48.382;9.102;2023-04-24T02:23:00;9.40;99.90
30851;DHT22;17567;48.382;9.102;2023-04-24T02:28:01;9.40;99.90
30851;DHT22;17567;48.382;9.102;2023-04-24T02:33:02;9.30;99.90
30851;DHT22;17567;48.382;9.102;2023-04-24T02:38:03;9.40;99.90
30851;DHT22;17567;48.382;9.102;2023-04-24T02:43:04;9.40;99.90
30851;DHT22;17567;48.382;9.102;2023-04-24T02:48:05;9.40;99.90
30851;DHT22;17567;48.382;9.102;2023-04-24T02:53:05;9.60;99.90
30851;DHT22;17567;48.382;9.102;2023-04-24T02:58:06;9.50;99.90
30851;DHT22;17567;48.382;9.102;2023-04-24T03:03:06;9.50;99.90
30851;DHT22;17567;48.382;9.102;2023-04-24T03:08:07;9.40;99.90
30851;DHT22;17567;48.382;9.102;2023-04-24T03:13:08;9.20;99.90
30851;DHT22;17567;48.382;9.102;2023-04-24T03:18:08;9.20;99.90
30851;DHT22;17567;48.382;9.102;2023-04-24T03:23:09;9.10;99.90
30851;DHT22;17567;48.382;9.102;2023-04-24T03:28:09;9.00;99.90
30851;DHT22;17567;48.382;9.102;2023-04-24T03:33:10;8.90;99.90
30851;DHT22;17567;48.382;9.102;2023-04-24T03:38:11;8.80;99.90
30851;DHT22;17567;48.382;9.102;2023-04-24T03:43:11;8.80;99.90
30851;DHT22;17567;48.382;9.102;2023-04-24T03:48:12;8.80;99.90
30851;DHT22;17567;48.382;9.102;2023-04-24T03:53:12;8.80;99.90
30851;DHT22;17567;48.382;9.102;2023-04-24T03:58:13;8.80;99.90
30851;DHT22;17567;48.382;9.102;2023-04-24T04:03:14;8.80;99.90
30851;DHT22;17567;48.382;9.102;2023-04-24T04:08:15;9.00;99.90
30851;DHT22;17567;48.382;9.102;2023-04-24T04:13:16;9.00;99.90
30851;DHT22;17567;48.382;9.102;2023-04-24T04:18:16;9.00;99.90
30851;DHT22;17567;48.382;9.102;2023-04-24T04:23:17;8.90;99.90
30851;DHT22;17567;48.382;9.102;2023-04-24T04:58:27;8.20;99.90
30851;DHT22;17567;48.382;9.102;2023-04-24T05:03:27;8.00;99.90
30851;DHT22;17567;48.382;9.102;2023-04-24T05:08:28;8.20;99.90
30851;DHT22;17567;48.382;9.102;2023-04-24T05:13:28;8.20;99.90
30851;DHT22;17567;48.382;9.102;2023-04-24T05:18:29;8.10;99.90
30851;DHT22;17567;48.382;9.102;2023-04-24T05:23:30;8.30;99.90
30851;DHT22;17567;48.382;9.102;2023-04-24T05:28:31;8.00;99.90
30851;DHT22;17567;48.382;9.102;2023-04-24T05:38:35;7.90;99.90
30851;DHT22;17567;48.382;9.102;2023-04-24T05:43:36;7.90;99.90
30851;DHT22;17567;48.382;9.102;2023-04-24T05:48:36;7.90;99.90
30851;DHT22;17567;48.382;9.102;2023-04-24T05:53:37;7.90;99.90
30851;DHT22;17567;48.382;9.102;2023-04-24T05:58:37;7.90;99.90
30851;DHT22;17567;48.382;9.102;2023-04-24T06:03:38;8.00;99.90
30851;DHT22;17567;48.382;9.102;2023-04-24T06:08:39;8.00;99.90
30851;DHT22;17567;48.382;9.102;2023-04-24T06:13:40;8.20;99.90
30851;DHT22;17567;48.382;9.102;2023-04-24T06:18:41;8.10;99.90
30851;DHT22;17567;48.382;9.102;2023-04-24T06:43:46;8.60;99.90
30851;DHT22;17567;48.382;9.102;2023-04-24T06:48:46;8.30;99.90
30851;DHT22;17567;48.382;9.102;2023-04-24T06:53:47;8.40;99.90
30851;DHT22;17567;48.382;9.102;2023-04-24T06:58:48;8.30;99.90
30851;DHT22;17567;48.382;9.102;2023-04-24T07:03:48;8.40;99.90
30851;DHT22;17567;48.382;9.102;2023-04-24T07:08:49;8.50;99.90
30851;DHT22;17567;48.382;9.102;2023-04-24T07:13:50;8.70;99.90
30851;DHT22;17567;48.382;9.102;2023-04-24T07:18:53;9.00;99.90
30851;DHT22;17567;48.382;9.102;2023-04-24T07:23:54;9.10;99.90
30851;DHT22;17567;48.382;9.102;2023-04-24T07:28:54;9.20;99.90
30851;DHT22;17567;48.382;9.102;2023-04-24T07:33:55;9.10;99.90
30851;DHT22;17567;48.382;9.102;2023-04-24T07:38:58;8.80;99.90
30851;DHT22;17567;48.382;9.102;2023-04-24T07:43:58;8.90;99.90
30851;DHT22;17567;48.382;9.102;2023-04-24T07:48:59;8.60;99.90
30851;DHT22;17567;48.382;9.102;2023-04-24T07:54:01;8.40;99.90
30851;DHT22;17567;48.382;9.102;2023-04-24T07:59:02;8.60;99.90
30851;DHT22;17567;48.382;9.102;2023-04-24T08:04:02;8.80;99.90
30851;DHT22;17567;48.382;9.102;2023-04-24T08:09:03;9.00;99.90
30851;DHT22;17567;48.382;9.102;2023-04-24T08:14:04;9.00;99.90
30851;DHT22;17567;48.382;9.102;2023-04-24T08:19:04;9.30;99.90
30851;DHT22;17567;48.382;9.102;2023-04-24T08:24:05;9.20;99.90
30851;DHT22;17567;48.382;9.102;2023-04-24T08:29:08;9.00;99.90
30851;DHT22;17567;48.382;9.102;2023-04-24T08:34:09;8.90;99.90
30851;DHT22;17567;48.382;9.102;2023-04-24T08:39:10;8.70;99.90
30851;DHT22;17567;48.382;9.102;2023-04-24T08:44:11;8.80;99.90
30851;DHT22;17567;48.382;9.102;2023-04-24T08:49:14;8.70;99.90
30851;DHT22;17567;48.382;9.102;2023-04-24T08:54:18;8.80;99.90
30851;DHT22;17567;48.382;9.102;2023-04-24T08:59:19;8.70;99.90
30851;DHT22;17567;48.382;9.102;2023-04-24T09:04:22;8.90;99.90
30851;DHT22;17567;48.382;9.102;2023-04-24T09:09:25;9.00;99.90
30851;DHT22;17567;48.382;9.102;2023-04-24T09:14:26;8.90;99.90
30851;DHT22;17567;48.382;9.102;2023-04-24T09:19:28;9.20;99.90
30851;DHT22;17567;48.382;9.102;2023-04-24T09:24:29;9.80;99.90
30851;DHT22;17567;48.382;9.102;2023-04-24T09:29:29;10.10;99.90
30851;DHT22;17567;48.382;9.102;2023-04-24T09:34:30;10.50;99.90
30851;DHT22;17567;48.382;9.102;2023-04-24T09:39:31;10.10;99.90
30851;DHT22;17567;48.382;9.102;2023-04-24T09:44:34;9.90;99.90
30851;DHT22;17567;48.382;9.102;2023-04-24T09:49:35;9.70;99.90
30851;DHT22;17567;48.382;9.102;2023-04-24T09:54:39;10.10;99.90
30851;DHT22;17567;48.382;9.102;2023-04-24T09:59:45;10.40;99.90
30851;DHT22;17567;48.382;9.102;2023-04-24T10:10:00;10.70;99.90
30851;DHT22;17567;48.382;9.102;2023-04-24T10:15:02;10.70;99.90
30851;DHT22;17567;48.382;9.102;2023-04-24T10:20:04;10.30;99.90
30851;DHT22;17567;48.382;9.102;2023-04-24T10:25:06;10.30;99.90
30851;DHT22;17567;48.382;9.102;2023-04-24T10:30:08;10.50;99.90
30851;DHT22;17567;48.382;9.102;2023-04-24T10:35:10;10.40;99.90
30851;DHT22;17567;48.382;9.102;2023-04-24T10:40:17;10.00;99.90
30851;DHT22;17567;48.382;9.102;2023-04-24T10:45:20;10.50;99.90
30851;DHT22;17567;48.382;9.102;2023-04-24T11:00:58;12.10;99.90
30851;DHT22;17567;48.382;9.102;2023-04-24T11:06:06;12.00;99.90
30851;DHT22;17567;48.382;9.102;2023-04-24T11:11:18;11.90;99.90
30851;DHT22;17567;48.382;9.102;2023-04-24T11:21:31;11.80;99.90
30851;DHT22;17567;48.382;9.102;2023-04-24T11:26:38;11.40;99.90
30851;DHT22;17567;48.382;9.102;2023-04-24T11:31:40;10.90;99.90
30851;DHT22;17567;48.382;9.102;2023-04-24T11:36:46;11.00;99.90
30851;DHT22;17567;48.382;9.102;2023-04-24T11:41:47;11.20;99.90
30851;DHT22;17567;48.382;9.102;2023-04-24T11:51:50;11.30;99.90
30851;DHT22;17567;48.382;9.102;2023-04-24T11:56:56;11.00;99.90
30851;DHT22;17567;48.382;9.102;2023-04-24T12:01:57;10.90;99.90
30851;DHT22;17567;48.382;9.102;2023-04-24T12:07:03;11.00;99.90
30851;DHT22;17567;48.382;9.102;2023-04-24T12:12:06;10.80;99.90
30851;DHT22;17567;48.382;9.102;2023-04-24T12:17:07;10.50;99.90
30851;DHT22;17567;48.382;9.102;2023-04-24T12:22:07;10.40;99.90
30851;DHT22;17567;48.382;9.102;2023-04-24T12:47:27;10.60;99.90
30851;DHT22;17567;48.382;9.102;2023-04-24T12:52:29;10.60;99.90
30851;DHT22;17567;48.382;9.102;2023-04-24T12:57:30;10.20;99.90
30851;DHT22;17567;48.382;9.102;2023-04-24T13:02:31;10.40;99.90
30851;DHT22;17567;48.382;9.102;2023-04-24T13:12:34;11.30;99.90
30851;DHT22;17567;48.382;9.102;2023-04-24T13:17:35;11.50;99.90
30851;DHT22;17567;48.382;9.102;2023-04-24T13:22:36;12.30;99.90
30851;DHT22;17567;48.382;9.102;2023-04-24T13:37:46;12.70;99.90
30851;DHT22;17567;48.382;9.102;2023-04-24T13:42:46;12.60;99.90
30851;DHT22;17567;48.382;9.102;2023-04-24T13:57:52;12.80;99.90
30851;DHT22;17567;48.382;9.102;2023-04-24T14:08:00;12.60;99.90
30851;DHT22;17567;48.382;9.102;2023-04-24T14:13:01;12.60;99.90
30851;DHT22;17567;48.382;9.102;2023-04-24T14:18:03;12.40;99.90
30851;DHT22;17567;48.382;9.102;2023-04-24T14:23:03;12.40;99.90
30851;DHT22;17567;48.382;9.102;2023-04-24T14:28:06;12.00;99.90
30851;DHT22;17567;48.382;9.102;2023-04-24T14:33:06;12.00;99.90
30851;DHT22;17567;48.382;9.102;2023-04-24T14:38:07;12.10;99.90
30851;DHT22;17567;48.382;9.102;2023-04-24T14:43:07;12.10;99.90
30851;DHT22;17567;48.382;9.102;2023-04-24T14:48:08;12.10;99.90
30851;DHT22;17567;48.382;9.102;2023-04-24T14:53:09;12.00;99.90
30851;DHT22;17567;48.382;9.102;2023-04-24T14:58:09;11.90;99.90
30851;DHT22;17567;48.382;9.102;2023-04-24T15:08:12;11.40;99.90
30851;DHT22;17567;48.382;9.102;2023-04-24T15:13:13;11.40;99.90
30851;DHT22;17567;48.382;9.102;2023-04-24T15:18:13;11.50;99.90
30851;DHT22;17567;48.382;9.102;2023-04-24T15:23:14;11.40;99.90
30851;DHT22;17567;48.382;9.102;2023-04-24T15:28:15;11.40;99.90
30851;DHT22;17567;48.382;9.102;2023-04-24T15:33:16;11.10;99.90
30851;DHT22;17567;48.382;9.102;2023-04-24T15:38:17;11.20;99.90
30851;DHT22;17567;48.382;9.102;2023-04-24T15:43:17;11.20;99.90
30851;DHT22;17567;48.382;9.102;2023-04-24T15:48:18;11.40;99.90
30851;DHT22;17567;48.382;9.102;2023-04-24T15:53:19;11.40;99.90
30851;DHT22;17567;48.382;9.102;2023-04-24T15:58:22;11.30;99.90
30851;DHT22;17567;48.382;9.102;2023-04-24T16:03:23;11.20;99.90
30851;DHT22;17567;48.382;9.102;2023-04-24T16:08:24;11.20;99.90
30851;DHT22;17567;48.382;9.102;2023-04-24T16:13:24;11.20;99.90
30851;DHT22;17567;48.382;9.102;2023-04-24T16:33:30;12.30;99.90
30851;DHT22;17567;48.382;9.102;2023-04-24T16:38:31;12.60;99.90
30851;DHT22;17567;48.382;9.102;2023-04-24T16:53:37;12.10;99.90
30851;DHT22;17567;48.382;9.102;2023-04-24T16:58:38;12.10;99.90
30851;DHT22;17567;48.382;9.102;2023-04-24T17:03:39;11.90;99.90
30851;DHT22;17567;48.382;9.102;2023-04-24T17:08:40;11.90;99.90
30851;DHT22;17567;48.382;9.102;2023-04-24T17:18:42;11.70;99.90
30851;DHT22;17567;48.382;9.102;2023-04-24T17:23:45;11.60;99.90
30851;DHT22;17567;48.382;9.102;2023-04-24T17:28:46;11.50;99.90
30851;DHT22;17567;48.382;9.102;2023-04-24T17:33:46;11.40;99.90
30851;DHT22;17567;48.382;9.102;2023-04-24T17:38:47;11.10;99.90
30851;DHT22;17567;48.382;9.102;2023-04-24T17:43:48;10.90;99.90
30851;DHT22;17567;48.382;9.102;2023-04-24T17:48:48;10.70;99.90
30851;DHT22;17567;48.382;9.102;2023-04-24T17:53:49;10.60;99.90
30851;DHT22;17567;48.382;9.102;2023-04-24T17:58:51;10.50;99.90
30851;DHT22;17567;48.382;9.102;2023-04-24T18:03:52;10.40;99.90
30851;DHT22;17567;48.382;9.102;2023-04-24T18:13:54;10.20;99.90
30851;DHT22;17567;48.382;9.102;2023-04-24T18:18:54;10.20;99.90
30851;DHT22;17567;48.382;9.102;2023-04-24T18:23:55;10.20;99.90
30851;DHT22;17567;48.382;9.102;2023-04-24T18:28:59;10.10;99.90
30851;DHT22;17567;48.382;9.102;2023-04-24T18:34:00;9.90;99.90
30851;DHT22;17567;48.382;9.102;2023-04-24T18:39:00;9.90;99.90
30851;DHT22;17567;48.382;9.102;2023-04-24T18:44:01;9.90;99.90
30851;DHT22;17567;48.382;9.102;2023-04-24T18:49:02;9.70;99.90
30851;DHT22;17567;48.382;9.102;2023-04-24T18:54:03;9.80;99.90
30851;DHT22;17567;48.382;9.102;2023-04-24T18:59:04;9.70;99.90
30851;DHT22;17567;48.382;9.102;2023-04-24T19:04:05;9.50;99.90
30851;DHT22;17567;48.382;9.102;2023-04-24T19:09:06;9.30;99.90
30851;DHT22;17567;48.382;9.102;2023-04-24T19:14:06;9.00;99.90
30851;DHT22;17567;48.382;9.102;2023-04-24T19:19:07;8.90;99.90
30851;DHT22;17567;48.382;9.102;2023-04-24T19:24:08;8.80;99.90
30851;DHT22;17567;48.382;9.102;2023-04-24T19:29:10;8.80;99.90
30851;DHT22;17567;48.382;9.102;2023-04-24T19:34:10;8.90;99.90
30851;DHT22;17567;48.382;9.102;2023-04-24T19:39:14;8.80;99.90
30851;DHT22;17567;48.382;9.102;2023-04-24T19:44:15;8.70;99.90
30851;DHT22;17567;48.382;9.102;2023-04-24T19:49:16;8.70;99.90
30851;DHT22;17567;48.382;9.102;2023-04-24T19:54:17;8.60;99.90
30851;DHT22;17567;48.382;9.102;2023-04-24T19:59:19;8.60;99.90
30851;DHT22;17567;48.382;9.102;2023-04-24T20:04:20;8.50;99.90
30851;DHT22;17567;48.382;9.102;2023-04-24T20:09:22;8.50;99.90
30851;DHT22;17567;48.382;9.102;2023-04-24T20:14:23;8.50;99.90
30851;DHT22;17567;48.382;9.102;2023-04-24T20:19:23;8.30;99.90
30851;DHT22;17567;48.382;9.102;2023-04-24T20:24:24;8.40;99.90
30851;DHT22;17567;48.382;9.102;2023-04-24T20:29:24;7.80;99.90
30851;DHT22;17567;48.382;9.102;2023-04-24T20:34:25;7.80;99.90
30851;DHT22;17567;48.382;9.102;2023-04-24T20:39:26;7.70;99.90
30851;DHT22;17567;48.382;9.102;2023-04-24T20:44:27;7.50;99.90
30851;DHT22;17567;48.382;9.102;2023-04-24T20:49:33;7.40;99.90
30851;DHT22;17567;48.382;9.102;2023-04-24T20:54:34;7.30;99.90
30851;DHT22;17567;48.382;9.102;2023-04-24T20:59:35;7.00;99.90
30851;DHT22;17567;48.382;9.102;2023-04-24T21:04:36;7.10;99.90
30851;DHT22;17567;48.382;9.102;2023-04-24T21:14:40;6.80;99.90
30851;DHT22;17567;48.382;9.102;2023-04-24T21:19:40;6.70;99.90
30851;DHT22;17567;48.382;9.102;2023-04-24T21:24:41;6.60;99.90
30851;DHT22;17567;48.382;9.102;2023-04-24T21:29:42;6.50;99.90
30851;DHT22;17567;48.382;9.102;2023-04-24T21:34:42;6.50;99.90
30851;DHT22;17567;48.382;9.102;2023-04-24T21:39:43;6.30;99.90
30851;DHT22;17567;48.382;9.102;2023-04-24T21:44:43;6.20;99.90
30851;DHT22;17567;48.382;9.102;2023-04-24T21:49:44;6.20;99.90
30851;DHT22;17567;48.382;9.102;2023-04-24T21:54:45;6.00;99.90
30851;DHT22;17567;48.382;9.102;2023-04-24T21:59:45;6.00;99.90
30851;DHT22;17567;48.382;9.102;2023-04-24T22:04:46;5.90;99.90
30851;DHT22;17567;48.382;9.102;2023-04-24T22:09:48;5.90;99.90
30851;DHT22;17567;48.382;9.102;2023-04-24T22:14:48;5.90;99.90
30851;DHT22;17567;48.382;9.102;2023-04-24T22:19:49;5.90;99.90
30851;DHT22;17567;48.382;9.102;2023-04-24T22:24:50;5.90;99.90
30851;DHT22;17567;48.382;9.102;2023-04-24T22:29:51;5.70;99.90
30851;DHT22;17567;48.382;9.102;2023-04-24T22:34:52;5.70;99.90
30851;DHT22;17567;48.382;9.102;2023-04-24T22:39:53;5.80;99.90
30851;DHT22;17567;48.382;9.102;2023-04-24T22:44:54;5.90;99.90
30851;DHT22;17567;48.382;9.102;2023-04-24T22:49:54;5.80;99.90
30851;DHT22;17567;48.382;9.102;2023-04-24T22:54:57;5.90;99.90
30851;DHT22;17567;48.382;9.102;2023-04-24T22:59:57;5.90;99.90
30851;DHT22;17567;48.382;9.102;2023-04-24T23:04:58;5.90;99.90
30851;DHT22;17567;48.382;9.102;2023-04-24T23:09:59;6.00;99.90
30851;DHT22;17567;48.382;9.102;2023-04-24T23:14:59;6.00;99.90
30851;DHT22;17567;48.382;9.102;2023-04-24T23:20:00;6.10;99.90
30851;DHT22;17567;48.382;9.102;2023-04-24T23:25:01;6.20;99.90
30851;DHT22;17567;48.382;9.102;2023-04-24T23:30:03;6.20;99.90
30851;DHT22;17567;48.382;9.102;2023-04-24T23:35:04;6.20;99.90
30851;DHT22;17567;48.382;9.102;2023-04-24T23:40:06;6.30;99.90
30851;DHT22;17567;48.382;9.102;2023-04-24T23:45:11;6.20;99.90
30851;DHT22;17567;48.382;9.102;2023-04-24T23:50:12;6.30;99.90
30851;DHT22;17567;48.382;9.102;2023-04-24T23:55:12;6.40;99.90
